| time (UTC) | temp F | wind direction | speed MPH | gust MPH | rain 1hr in | rain 24hr in | rain mn in | humidity % | barometer mb |
| 20260905034628 | 64 | 0 | 0.0 | 0.0 | 0.00 | 0.00 | 0.00 | 67 | 980.7 |
| 20260905033012 | 65 | 0 | 0.0 | 0.0 | 0.00 | 0.00 | 0.00 | 67 | 980.5 |
| 20260905024629 | 65 | 0 | 0.0 | 0.0 | 0.00 | 0.00 | 0.00 | 69 | 980.3 |
| 20260905021628 | 66 | 282 | 0.0 | 0.0 | 0.00 | 0.00 | 0.00 | 68 | 980.1 |
| 20260905014628 | 66 | 0 | 0.0 | 0.0 | 0.00 | 0.00 | 0.00 | 69 | 980.1 |
| 20260905011624 | 67 | 281 | 0.0 | 0.0 | 0.00 | 0.00 | 0.00 | 67 | 980.1 |
| 20260905010005 | 68 | 282 | 0.0 | 0.0 | 0.00 | 0.00 | 0.00 | 68 | 980.3 |
| 20260905001624 | 70 | 0 | 0.0 | 0.0 | 0.00 | 0.00 | 0.00 | 65 | 979.8 |
| 20260905000013 | 70 | 279 | 0.0 | 0.0 | 0.00 | 0.00 | 0.00 | 66 | 979.7 |
| 20260904231622 | 71 | 280 | 0.0 | 0.0 | 0.00 | 0.00 | 0.00 | 65 | 979.7 |
| 20260904224621 | 74 | 0 | 0.0 | 0.0 | 0.00 | 0.00 | 0.00 | 61 | 979.3 |
| 20260904221619 | 76 | 279 | 0.0 | 0.0 | 0.00 | 0.00 | 0.00 | 57 | 979.2 |
| 20260904214619 | 76 | 0 | 0.0 | 11.0 | 0.00 | 0.00 | 0.00 | 57 | 978.9 |
| 20260904214406 | 75 | 0 | 0.0 | 1.0 | 0.00 | 0.00 | 0.00 | 59 | 978.5 |
| 20260904204618 | 75 | 182 | 0.0 | 0.0 | 0.00 | 0.00 | 0.00 | 56 | 978.0 |
| 20260904201616 | 76 | 182 | 0.0 | 0.0 | 0.00 | 0.00 | 0.00 | 59 | 978.1 |
| 20260904194614 | 78 | 182 | 0.0 | 0.0 | 0.00 | 0.00 | 0.00 | 55 | 977.8 |
| 20260904191613 | 80 | 182 | 0.0 | 0.0 | 0.00 | 0.00 | 0.00 | 55 | 977.7 |
| 20260904184614 | 82 | 182 | 0.0 | 0.0 | 0.00 | 0.00 | 0.00 | 53 | 977.3 |
| 20260904181613 | 86 | 182 | 0.0 | 0.0 | 0.00 | 0.00 | 0.00 | 47 | 976.8 |
| 20260904174614 | 88 | 182 | 0.0 | 2.0 | 0.00 | 0.00 | 0.00 | 41 | 976.6 |
| 20260904171610 | 89 | 183 | 0.0 | 2.0 | 0.00 | 0.00 | 0.00 | 39 | 976.5 |
| 20260904164609 | 90 | 180 | 0.0 | 4.0 | 0.00 | 0.00 | 0.00 | 37 | 976.6 |
| 20260904161606 | 91 | 0 | 0.0 | 5.0 | 0.00 | 0.00 | 0.00 | 35 | 976.6 |
| 20260904154605 | 90 | 192 | 0.0 | 2.0 | 0.00 | 0.00 | 0.00 | 35 | 976.7 |
| 20260904151607 | 90 | 0 | 0.0 | 0.0 | 0.00 | 0.00 | 0.00 | 34 | 976.9 |
| 20260904144606 | 90 | 0 | 0.0 | 5.0 | 0.00 | 0.00 | 0.00 | 35 | 977.1 |
| 20260904141604 | 90 | 0 | 0.0 | 3.0 | 0.00 | 0.00 | 0.00 | 39 | 977.4 |
| 20260904134605 | 91 | 0 | 1.0 | 5.0 | 0.00 | 0.00 | 0.00 | 37 | 977.8 |
| 20260904132939 | 91 | 40 | 0.0 | 0.0 | 0.00 | 0.00 | 0.00 | 37 | 977.9 |
| 20260904124602 | 91 | 0 | 0.0 | 7.0 | 0.00 | 0.00 | 0.00 | 37 | 978.5 |
| 20260904121600 | 90 | 93 | 0.0 | 0.0 | 0.00 | 0.00 | 0.00 | 39 | 978.7 |
| 20260904114600 | 89 | 78 | 0.0 | 0.0 | 0.00 | 0.00 | 0.00 | 40 | 979.0 |
| 20260904111600 | 89 | 0 | 0.0 | 0.0 | 0.00 | 0.00 | 0.00 | 40 | 979.1 |
| 20260904104558 | 88 | 0 | 0.0 | 1.0 | 0.00 | 0.00 | 0.00 | 41 | 979.5 |
| 20260904101558 | 86 | 0 | 0.0 | 0.0 | 0.00 | 0.00 | 0.00 | 42 | 979.8 |
| 20260904094600 | 85 | 0 | 0.0 | 0.0 | 0.00 | 0.00 | 0.00 | 47 | 980.0 |
| 20260904091558 | 83 | 0 | 0.0 | 0.0 | 0.00 | 0.00 | 0.00 | 47 | 980.1 |
| 20260904084602 | 81 | 0 | 0.0 | 0.0 | 0.00 | 0.00 | 0.00 | 50 | 980.1 |
| 20260904081557 | 79 | 17 | 0.0 | 0.0 | 0.00 | 0.00 | 0.00 | 51 | 980.0 |
| 20260904074552 | 74 | 13 | 0.0 | 0.0 | 0.00 | 0.00 | 0.00 | 61 | 980.1 |
| 20260904071552 | 67 | 15 | 0.0 | 0.0 | 0.00 | 0.00 | 0.00 | 75 | 979.9 |
| 20260904064552 | 63 | 18 | 0.0 | 0.0 | 0.00 | 0.00 | 0.00 | 77 | 980.0 |
| 20260904064315 | 61 | 0 | 0.0 | 0.0 | 0.00 | 0.00 | 0.00 | 80 | 980.1 |
| 20260904054549 | 60 | 0 | 0.0 | 0.0 | 0.00 | 0.00 | 0.00 | 81 | 980.1 |
| 20260904051551 | 59 | 0 | 0.0 | 0.0 | 0.00 | 0.00 | 0.00 | 80 | 980.2 |
| 20260904044547 | 60 | 0 | 0.0 | 0.0 | 0.00 | 0.00 | 0.00 | 79 | 980.2 |
| 20260904041546 | 60 | 0 | 0.0 | 0.0 | 0.00 | 0.00 | 0.00 | 78 | 980.2 |
| 20260904041319 | 61 | 11 | 0.0 | 0.0 | 0.00 | 0.00 | 0.00 | 77 | 980.5 |